sensor_id;sensor_type;location;lat;lon;timestamp;P1;durP1;ratioP1;P2;durP2;ratioP2
56567;SDS011;42456;49.956;20.004;2023-10-08T00:00:05;11.40;;;3.50;;
56567;SDS011;42456;49.956;20.004;2023-10-08T00:02:47;8.60;;;3.50;;
56567;SDS011;42456;49.956;20.004;2023-10-08T00:05:14;11.60;;;3.20;;
56567;SDS011;42456;49.956;20.004;2023-10-08T00:07:43;11.20;;;4.10;;
56567;SDS011;42456;49.956;20.004;2023-10-08T00:10:09;8.20;;;3.30;;
56567;SDS011;42456;49.956;20.004;2023-10-08T00:12:36;8.10;;;3.30;;
56567;SDS011;42456;49.956;20.004;2023-10-08T00:15:03;13.20;;;4.10;;
56567;SDS011;42456;49.956;20.004;2023-10-08T00:17:33;9.90;;;3.80;;
56567;SDS011;42456;49.956;20.004;2023-10-08T00:20:00;9.70;;;3.20;;
56567;SDS011;42456;49.956;20.004;2023-10-08T00:22:30;7.30;;;3.20;;
56567;SDS011;42456;49.956;20.004;2023-10-08T00:25:02;7.80;;;3.30;;
56567;SDS011;42456;49.956;20.004;2023-10-08T00:27:37;10.30;;;4.00;;
56567;SDS011;42456;49.956;20.004;2023-10-08T00:30:06;8.60;;;3.70;;
56567;SDS011;42456;49.956;20.004;2023-10-08T00:32:44;9.70;;;3.70;;
56567;SDS011;42456;49.956;20.004;2023-10-08T00:35:11;11.70;;;3.80;;
56567;SDS011;42456;49.956;20.004;2023-10-08T00:37:40;10.70;;;3.90;;
56567;SDS011;42456;49.956;20.004;2023-10-08T00:40:07;10.10;;;3.60;;
56567;SDS011;42456;49.956;20.004;2023-10-08T00:42:38;9.80;;;3.60;;
56567;SDS011;42456;49.956;20.004;2023-10-08T00:45:12;9.00;;;3.70;;
56567;SDS011;42456;49.956;20.004;2023-10-08T00:47:43;11.70;;;3.80;;
56567;SDS011;42456;49.956;20.004;2023-10-08T00:50:10;9.70;;;3.50;;
56567;SDS011;42456;49.956;20.004;2023-10-08T00:52:49;9.40;;;3.30;;
56567;SDS011;42456;49.956;20.004;2023-10-08T00:55:26;9.10;;;3.50;;
56567;SDS011;42456;49.956;20.004;2023-10-08T00:57:58;10.70;;;3.90;;
56567;SDS011;42456;49.956;20.004;2023-10-08T01:00:35;10.10;;;3.70;;
56567;SDS011;42456;49.956;20.004;2023-10-08T01:03:05;10.60;;;3.50;;
56567;SDS011;42456;49.956;20.004;2023-10-08T01:05:42;12.10;;;3.80;;
56567;SDS011;42456;49.956;20.004;2023-10-08T01:08:14;11.20;;;4.00;;
56567;SDS011;42456;49.956;20.004;2023-10-08T01:10:49;11.20;;;3.90;;
56567;SDS011;42456;49.956;20.004;2023-10-08T01:13:30;11.50;;;3.90;;
56567;SDS011;42456;49.956;20.004;2023-10-08T01:16:03;9.80;;;3.80;;
56567;SDS011;42456;49.956;20.004;2023-10-08T01:18:30;10.00;;;3.90;;
56567;SDS011;42456;49.956;20.004;2023-10-08T01:21:02;7.20;;;4.00;;
56567;SDS011;42456;49.956;20.004;2023-10-08T01:23:35;7.40;;;3.80;;
56567;SDS011;42456;49.956;20.004;2023-10-08T01:26:03;12.60;;;3.80;;
56567;SDS011;42456;49.956;20.004;2023-10-08T01:28:37;11.10;;;4.00;;
56567;SDS011;42456;49.956;20.004;2023-10-08T01:31:04;9.30;;;3.80;;
56567;SDS011;42456;49.956;20.004;2023-10-08T01:33:33;8.80;;;3.70;;
56567;SDS011;42456;49.956;20.004;2023-10-08T01:36:14;11.80;;;4.30;;
56567;SDS011;42456;49.956;20.004;2023-10-08T01:38:40;10.50;;;4.40;;
56567;SDS011;42456;49.956;20.004;2023-10-08T01:41:15;10.10;;;4.00;;
56567;SDS011;42456;49.956;20.004;2023-10-08T01:43:46;4.60;;;2.60;;
56567;SDS011;42456;49.956;20.004;2023-10-08T01:46:14;1.50;;;1.40;;
56567;SDS011;42456;49.956;20.004;2023-10-08T01:48:42;1.60;;;0.80;;
56567;SDS011;42456;49.956;20.004;2023-10-08T01:51:12;1.10;;;0.40;;
56567;SDS011;42456;49.956;20.004;2023-10-08T01:53:52;1.20;;;0.40;;
56567;SDS011;42456;49.956;20.004;2023-10-08T01:56:24;1.10;;;0.40;;
56567;SDS011;42456;49.956;20.004;2023-10-08T01:58:51;0.30;;;0.30;;
56567;SDS011;42456;49.956;20.004;2023-10-08T02:01:21;0.80;;;0.40;;
56567;SDS011;42456;49.956;20.004;2023-10-08T02:03:48;0.60;;;0.40;;
56567;SDS011;42456;49.956;20.004;2023-10-08T02:06:15;0.30;;;0.30;;
56567;SDS011;42456;49.956;20.004;2023-10-08T02:08:42;0.20;;;0.20;;
56567;SDS011;42456;49.956;20.004;2023-10-08T02:11:09;0.20;;;0.20;;
56567;SDS011;42456;49.956;20.004;2023-10-08T02:13:37;0.30;;;0.30;;
56567;SDS011;42456;49.956;20.004;2023-10-08T02:16:04;1.60;;;0.30;;
56567;SDS011;42456;49.956;20.004;2023-10-08T02:18:31;0.40;;;0.40;;
56567;SDS011;42456;49.956;20.004;2023-10-08T02:20:59;0.50;;;0.50;;
56567;SDS011;42456;49.956;20.004;2023-10-08T02:23:26;0.60;;;0.60;;
56567;SDS011;42456;49.956;20.004;2023-10-08T02:25:54;2.30;;;0.80;;
56567;SDS011;42456;49.956;20.004;2023-10-08T02:28:21;1.90;;;0.90;;
56567;SDS011;42456;49.956;20.004;2023-10-08T02:30:51;0.70;;;0.70;;
56567;SDS011;42456;49.956;20.004;2023-10-08T02:33:17;0.60;;;0.60;;
56567;SDS011;42456;49.956;20.004;2023-10-08T02:35:45;0.30;;;0.30;;
56567;SDS011;42456;49.956;20.004;2023-10-08T02:38:14;0.20;;;0.20;;
56567;SDS011;42456;49.956;20.004;2023-10-08T02:40:43;0.20;;;0.20;;
56567;SDS011;42456;49.956;20.004;2023-10-08T02:43:13;0.20;;;0.20;;
56567;SDS011;42456;49.956;20.004;2023-10-08T02:45:42;0.30;;;0.30;;
56567;SDS011;42456;49.956;20.004;2023-10-08T02:48:14;0.30;;;0.30;;
56567;SDS011;42456;49.956;20.004;2023-10-08T02:50:43;0.40;;;0.40;;
56567;SDS011;42456;49.956;20.004;2023-10-08T02:53:13;0.50;;;0.50;;
56567;SDS011;42456;49.956;20.004;2023-10-08T02:55:45;0.60;;;0.50;;
56567;SDS011;42456;49.956;20.004;2023-10-08T02:58:13;0.40;;;0.40;;
56567;SDS011;42456;49.956;20.004;2023-10-08T03:00:42;0.30;;;0.30;;
56567;SDS011;42456;49.956;20.004;2023-10-08T03:03:11;0.20;;;0.20;;
56567;SDS011;42456;49.956;20.004;2023-10-08T03:05:50;0.50;;;0.30;;
56567;SDS011;42456;49.956;20.004;2023-10-08T03:08:19;2.50;;;0.50;;
56567;SDS011;42456;49.956;20.004;2023-10-08T03:10:50;0.30;;;0.30;;
56567;SDS011;42456;49.956;20.004;2023-10-08T03:13:29;0.30;;;0.30;;
56567;SDS011;42456;49.956;20.004;2023-10-08T03:15:56;0.80;;;0.70;;
56567;SDS011;42456;49.956;20.004;2023-10-08T03:18:29;0.50;;;0.50;;
56567;SDS011;42456;49.956;20.004;2023-10-08T03:21:03;1.60;;;0.50;;
56567;SDS011;42456;49.956;20.004;2023-10-08T03:23:31;1.00;;;0.90;;
56567;SDS011;42456;49.956;20.004;2023-10-08T03:26:03;0.80;;;0.60;;
56567;SDS011;42456;49.956;20.004;2023-10-08T03:29:03;1.10;;;0.70;;
56567;SDS011;42456;49.956;20.004;2023-10-08T03:31:51;1.30;;;1.00;;
56567;SDS011;42456;49.956;20.004;2023-10-08T03:34:18;1.90;;;0.50;;
56567;SDS011;42456;49.956;20.004;2023-10-08T03:36:47;0.50;;;0.50;;
56567;SDS011;42456;49.956;20.004;2023-10-08T03:39:17;0.70;;;0.70;;
56567;SDS011;42456;49.956;20.004;2023-10-08T03:41:46;1.20;;;0.60;;
56567;SDS011;42456;49.956;20.004;2023-10-08T03:44:27;1.20;;;0.80;;
56567;SDS011;42456;49.956;20.004;2023-10-08T03:46:56;0.60;;;0.60;;
56567;SDS011;42456;49.956;20.004;2023-10-08T03:49:23;0.50;;;0.50;;
56567;SDS011;42456;49.956;20.004;2023-10-08T03:51:50;0.90;;;0.50;;
56567;SDS011;42456;49.956;20.004;2023-10-08T03:54:19;1.40;;;0.90;;
56567;SDS011;42456;49.956;20.004;2023-10-08T03:56:56;1.50;;;0.80;;
56567;SDS011;42456;49.956;20.004;2023-10-08T03:59:24;1.30;;;0.90;;
56567;SDS011;42456;49.956;20.004;2023-10-08T04:02:07;1.00;;;0.70;;
56567;SDS011;42456;49.956;20.004;2023-10-08T04:04:41;1.00;;;0.90;;
56567;SDS011;42456;49.956;20.004;2023-10-08T04:07:20;1.70;;;1.10;;
56567;SDS011;42456;49.956;20.004;2023-10-08T04:09:53;1.20;;;1.10;;
56567;SDS011;42456;49.956;20.004;2023-10-08T04:12:40;2.60;;;0.80;;
56567;SDS011;42456;49.956;20.004;2023-10-08T04:15:11;1.20;;;0.80;;
56567;SDS011;42456;49.956;20.004;2023-10-08T04:17:43;2.30;;;1.10;;
56567;SDS011;42456;49.956;20.004;2023-10-08T04:20:12;2.90;;;1.20;;
56567;SDS011;42456;49.956;20.004;2023-10-08T04:23:01;3.20;;;1.10;;
56567;SDS011;42456;49.956;20.004;2023-10-08T04:27:59;3.30;;;1.10;;
56567;SDS011;42456;49.956;20.004;2023-10-08T04:30:27;1.30;;;1.00;;
56567;SDS011;42456;49.956;20.004;2023-10-08T04:32:59;1.40;;;1.10;;
56567;SDS011;42456;49.956;20.004;2023-10-08T04:35:34;1.50;;;0.90;;
56567;SDS011;42456;49.956;20.004;2023-10-08T04:38:16;1.20;;;0.50;;
56567;SDS011;42456;49.956;20.004;2023-10-08T04:43:15;2.50;;;0.90;;
56567;SDS011;42456;49.956;20.004;2023-10-08T04:45:52;1.60;;;0.50;;
56567;SDS011;42456;49.956;20.004;2023-10-08T04:48:20;1.10;;;0.70;;
56567;SDS011;42456;49.956;20.004;2023-10-08T04:50:47;1.10;;;0.70;;
56567;SDS011;42456;49.956;20.004;2023-10-08T04:53:26;2.20;;;1.00;;
56567;SDS011;42456;49.956;20.004;2023-10-08T04:55:59;3.20;;;1.20;;
56567;SDS011;42456;49.956;20.004;2023-10-08T04:58:33;2.90;;;1.00;;
56567;SDS011;42456;49.956;20.004;2023-10-08T05:01:03;1.20;;;1.00;;
56567;SDS011;42456;49.956;20.004;2023-10-08T05:06:27;5.20;;;1.10;;
56567;SDS011;42456;49.956;20.004;2023-10-08T05:09:10;2.50;;;1.10;;
56567;SDS011;42456;49.956;20.004;2023-10-08T05:11:47;4.00;;;1.40;;
56567;SDS011;42456;49.956;20.004;2023-10-08T05:14:22;3.50;;;1.30;;
56567;SDS011;42456;49.956;20.004;2023-10-08T05:17:00;3.50;;;1.50;;
56567;SDS011;42456;49.956;20.004;2023-10-08T05:19:49;2.90;;;1.30;;
56567;SDS011;42456;49.956;20.004;2023-10-08T05:22:42;4.90;;;1.40;;
56567;SDS011;42456;49.956;20.004;2023-10-08T05:25:22;4.20;;;1.30;;
56567;SDS011;42456;49.956;20.004;2023-10-08T05:28:01;3.40;;;1.00;;
56567;SDS011;42456;49.956;20.004;2023-10-08T05:30:36;1.70;;;1.00;;
56567;SDS011;42456;49.956;20.004;2023-10-08T05:33:06;1.50;;;0.90;;
56567;SDS011;42456;49.956;20.004;2023-10-08T05:35:35;2.00;;;1.00;;
56567;SDS011;42456;49.956;20.004;2023-10-08T05:38:10;3.60;;;1.10;;
56567;SDS011;42456;49.956;20.004;2023-10-08T05:40:52;1.50;;;1.00;;
56567;SDS011;42456;49.956;20.004;2023-10-08T05:43:22;3.00;;;0.90;;
56567;SDS011;42456;49.956;20.004;2023-10-08T05:46:04;4.00;;;1.50;;
56567;SDS011;42456;49.956;20.004;2023-10-08T05:48:45;3.30;;;1.20;;
56567;SDS011;42456;49.956;20.004;2023-10-08T05:51:27;2.30;;;1.00;;
56567;SDS011;42456;49.956;20.004;2023-10-08T05:54:11;4.50;;;1.40;;
56567;SDS011;42456;49.956;20.004;2023-10-08T05:59:42;4.50;;;1.10;;
56567;SDS011;42456;49.956;20.004;2023-10-08T06:02:20;4.60;;;1.50;;
56567;SDS011;42456;49.956;20.004;2023-10-08T06:05:01;3.40;;;1.20;;
56567;SDS011;42456;49.956;20.004;2023-10-08T06:10:15;4.50;;;1.10;;
56567;SDS011;42456;49.956;20.004;2023-10-08T06:12:57;4.30;;;1.10;;
56567;SDS011;42456;49.956;20.004;2023-10-08T06:15:40;2.50;;;1.30;;
56567;SDS011;42456;49.956;20.004;2023-10-08T06:18:22;10.20;;;1.90;;
56567;SDS011;42456;49.956;20.004;2023-10-08T06:20:57;3.00;;;1.40;;
56567;SDS011;42456;49.956;20.004;2023-10-08T06:23:28;2.90;;;1.50;;
56567;SDS011;42456;49.956;20.004;2023-10-08T06:25:59;2.20;;;1.50;;
56567;SDS011;42456;49.956;20.004;2023-10-08T06:28:41;4.60;;;1.50;;
56567;SDS011;42456;49.956;20.004;2023-10-08T06:31:13;4.60;;;1.60;;
56567;SDS011;42456;49.956;20.004;2023-10-08T06:33:43;3.20;;;1.30;;
56567;SDS011;42456;49.956;20.004;2023-10-08T06:36:11;4.40;;;1.90;;
56567;SDS011;42456;49.956;20.004;2023-10-08T06:38:39;3.60;;;1.80;;
56567;SDS011;42456;49.956;20.004;2023-10-08T06:41:08;2.90;;;1.40;;
56567;SDS011;42456;49.956;20.004;2023-10-08T06:43:43;4.20;;;1.50;;
56567;SDS011;42456;49.956;20.004;2023-10-08T06:46:16;4.00;;;1.60;;
56567;SDS011;42456;49.956;20.004;2023-10-08T06:48:45;3.90;;;1.50;;
56567;SDS011;42456;49.956;20.004;2023-10-08T06:51:13;4.00;;;1.60;;
56567;SDS011;42456;49.956;20.004;2023-10-08T06:53:40;5.60;;;1.70;;
56567;SDS011;42456;49.956;20.004;2023-10-08T06:56:08;4.30;;;1.50;;
56567;SDS011;42456;49.956;20.004;2023-10-08T06:58:39;3.20;;;1.60;;
56567;SDS011;42456;49.956;20.004;2023-10-08T07:01:12;4.40;;;1.90;;
56567;SDS011;42456;49.956;20.004;2023-10-08T07:03:39;5.10;;;1.80;;
56567;SDS011;42456;49.956;20.004;2023-10-08T07:06:07;5.80;;;1.90;;
56567;SDS011;42456;49.956;20.004;2023-10-08T07:08:43;5.30;;;2.10;;
56567;SDS011;42456;49.956;20.004;2023-10-08T07:13:40;4.40;;;2.00;;
56567;SDS011;42456;49.956;20.004;2023-10-08T07:16:09;6.00;;;2.30;;
56567;SDS011;42456;49.956;20.004;2023-10-08T07:18:39;8.90;;;2.20;;
56567;SDS011;42456;49.956;20.004;2023-10-08T07:21:08;7.40;;;2.50;;
56567;SDS011;42456;49.956;20.004;2023-10-08T07:23:39;4.70;;;2.40;;
56567;SDS011;42456;49.956;20.004;2023-10-08T07:26:20;5.60;;;2.80;;
56567;SDS011;42456;49.956;20.004;2023-10-08T07:33:51;3.70;;;2.40;;
56567;SDS011;42456;49.956;20.004;2023-10-08T07:36:25;7.00;;;2.80;;
56567;SDS011;42456;49.956;20.004;2023-10-08T07:38:53;7.60;;;2.90;;
56567;SDS011;42456;49.956;20.004;2023-10-08T07:41:20;8.00;;;2.80;;
56567;SDS011;42456;49.956;20.004;2023-10-08T07:43:47;8.50;;;2.60;;
56567;SDS011;42456;49.956;20.004;2023-10-08T07:46:25;5.90;;;2.50;;
56567;SDS011;42456;49.956;20.004;2023-10-08T07:48:53;10.00;;;3.00;;
56567;SDS011;42456;49.956;20.004;2023-10-08T07:51:21;8.00;;;2.70;;
56567;SDS011;42456;49.956;20.004;2023-10-08T07:53:48;6.30;;;2.90;;
56567;SDS011;42456;49.956;20.004;2023-10-08T07:56:24;7.60;;;2.70;;
56567;SDS011;42456;49.956;20.004;2023-10-08T07:58:52;8.20;;;2.90;;
56567;SDS011;42456;49.956;20.004;2023-10-08T08:01:23;6.30;;;2.90;;
56567;SDS011;42456;49.956;20.004;2023-10-08T08:03:53;6.60;;;2.80;;
56567;SDS011;42456;49.956;20.004;2023-10-08T08:06:21;5.30;;;2.70;;
56567;SDS011;42456;49.956;20.004;2023-10-08T08:08:49;5.80;;;2.60;;
56567;SDS011;42456;49.956;20.004;2023-10-08T08:11:16;7.20;;;2.30;;
56567;SDS011;42456;49.956;20.004;2023-10-08T08:13:46;8.60;;;3.10;;
56567;SDS011;42456;49.956;20.004;2023-10-08T08:16:13;7.70;;;2.70;;
56567;SDS011;42456;49.956;20.004;2023-10-08T08:18:47;5.50;;;2.80;;
56567;SDS011;42456;49.956;20.004;2023-10-08T08:21:16;7.30;;;3.00;;
56567;SDS011;42456;49.956;20.004;2023-10-08T08:23:43;6.60;;;2.90;;
56567;SDS011;42456;49.956;20.004;2023-10-08T08:28:54;6.00;;;2.90;;
56567;SDS011;42456;49.956;20.004;2023-10-08T08:31:23;8.30;;;3.00;;
56567;SDS011;42456;49.956;20.004;2023-10-08T08:33:58;4.50;;;2.60;;
56567;SDS011;42456;49.956;20.004;2023-10-08T08:36:30;5.90;;;2.90;;
56567;SDS011;42456;49.956;20.004;2023-10-08T08:38:58;6.20;;;3.00;;
56567;SDS011;42456;49.956;20.004;2023-10-08T08:41:25;4.60;;;2.60;;
56567;SDS011;42456;49.956;20.004;2023-10-08T08:43:53;7.70;;;2.40;;
56567;SDS011;42456;49.956;20.004;2023-10-08T08:46:32;6.70;;;3.10;;
56567;SDS011;42456;49.956;20.004;2023-10-08T08:49:05;6.40;;;2.90;;
56567;SDS011;42456;49.956;20.004;2023-10-08T08:51:34;7.70;;;3.10;;
56567;SDS011;42456;49.956;20.004;2023-10-08T08:54:02;6.50;;;3.10;;
56567;SDS011;42456;49.956;20.004;2023-10-08T08:56:33;8.90;;;3.10;;
56567;SDS011;42456;49.956;20.004;2023-10-08T08:59:04;7.20;;;3.00;;
56567;SDS011;42456;49.956;20.004;2023-10-08T09:01:31;6.40;;;3.10;;
56567;SDS011;42456;49.956;20.004;2023-10-08T09:04:00;7.50;;;3.00;;
56567;SDS011;42456;49.956;20.004;2023-10-08T09:06:28;10.20;;;3.10;;
56567;SDS011;42456;49.956;20.004;2023-10-08T09:08:55;8.40;;;3.40;;
56567;SDS011;42456;49.956;20.004;2023-10-08T09:11:42;7.90;;;3.30;;
56567;SDS011;42456;49.956;20.004;2023-10-08T09:14:09;6.60;;;3.10;;
56567;SDS011;42456;49.956;20.004;2023-10-08T09:16:39;8.30;;;2.90;;
56567;SDS011;42456;49.956;20.004;2023-10-08T09:19:06;6.80;;;3.00;;
56567;SDS011;42456;49.956;20.004;2023-10-08T09:21:38;4.80;;;2.50;;
56567;SDS011;42456;49.956;20.004;2023-10-08T09:24:07;4.90;;;2.50;;
56567;SDS011;42456;49.956;20.004;2023-10-08T09:26:38;5.20;;;2.30;;
56567;SDS011;42456;49.956;20.004;2023-10-08T09:29:06;3.50;;;2.20;;
56567;SDS011;42456;49.956;20.004;2023-10-08T09:31:34;4.20;;;2.10;;
56567;SDS011;42456;49.956;20.004;2023-10-08T09:34:05;3.90;;;2.00;;
56567;SDS011;42456;49.956;20.004;2023-10-08T09:36:31;5.00;;;2.30;;
56567;SDS011;42456;49.956;20.004;2023-10-08T09:39:02;5.50;;;3.10;;
56567;SDS011;42456;49.956;20.004;2023-10-08T09:41:34;3.40;;;2.50;;
56567;SDS011;42456;49.956;20.004;2023-10-08T09:44:06;4.60;;;2.30;;
56567;SDS011;42456;49.956;20.004;2023-10-08T09:46:36;5.20;;;2.60;;
56567;SDS011;42456;49.956;20.004;2023-10-08T09:49:06;5.80;;;2.50;;
56567;SDS011;42456;49.956;20.004;2023-10-08T09:51:39;4.70;;;2.50;;
56567;SDS011;42456;49.956;20.004;2023-10-08T09:54:10;4.20;;;2.30;;
56567;SDS011;42456;49.956;20.004;2023-10-08T09:56:42;5.30;;;2.30;;
56567;SDS011;42456;49.956;20.004;2023-10-08T09:59:11;5.30;;;2.30;;
56567;SDS011;42456;49.956;20.004;2023-10-08T10:01:41;5.10;;;2.20;;
56567;SDS011;42456;49.956;20.004;2023-10-08T10:04:22;4.80;;;2.00;;
56567;SDS011;42456;49.956;20.004;2023-10-08T10:06:59;2.60;;;1.80;;
56567;SDS011;42456;49.956;20.004;2023-10-08T10:09:39;5.60;;;2.10;;
56567;SDS011;42456;49.956;20.004;2023-10-08T10:12:09;2.30;;;2.00;;
56567;SDS011;42456;49.956;20.004;2023-10-08T10:14:41;4.30;;;1.80;;
56567;SDS011;42456;49.956;20.004;2023-10-08T10:17:12;4.00;;;1.50;;
56567;SDS011;42456;49.956;20.004;2023-10-08T10:19:59;2.30;;;1.30;;
56567;SDS011;42456;49.956;20.004;2023-10-08T10:22:34;2.50;;;2.10;;
56567;SDS011;42456;49.956;20.004;2023-10-08T10:25:02;3.80;;;2.20;;
56567;SDS011;42456;49.956;20.004;2023-10-08T10:30:17;3.50;;;2.00;;
56567;SDS011;42456;49.956;20.004;2023-10-08T10:32:52;2.80;;;1.90;;
56567;SDS011;42456;49.956;20.004;2023-10-08T10:35:20;3.00;;;1.70;;
56567;SDS011;42456;49.956;20.004;2023-10-08T10:37:47;6.40;;;2.20;;
56567;SDS011;42456;49.956;20.004;2023-10-08T10:40:24;2.10;;;1.50;;
56567;SDS011;42456;49.956;20.004;2023-10-08T10:43:06;2.10;;;1.40;;
56567;SDS011;42456;49.956;20.004;2023-10-08T10:48:13;4.10;;;1.70;;
56567;SDS011;42456;49.956;20.004;2023-10-08T10:50:47;1.70;;;1.50;;
56567;SDS011;42456;49.956;20.004;2023-10-08T10:53:31;4.00;;;1.90;;
56567;SDS011;42456;49.956;20.004;2023-10-08T10:55:59;3.70;;;2.00;;
56567;SDS011;42456;49.956;20.004;2023-10-08T10:58:31;2.90;;;1.70;;
56567;SDS011;42456;49.956;20.004;2023-10-08T11:01:05;2.80;;;1.80;;
56567;SDS011;42456;49.956;20.004;2023-10-08T11:03:50;3.20;;;1.70;;
56567;SDS011;42456;49.956;20.004;2023-10-08T11:06:19;3.20;;;1.90;;
56567;SDS011;42456;49.956;20.004;2023-10-08T11:08:51;4.20;;;2.30;;
56567;SDS011;42456;49.956;20.004;2023-10-08T11:11:19;4.20;;;1.80;;
56567;SDS011;42456;49.956;20.004;2023-10-08T11:13:57;3.80;;;1.90;;
56567;SDS011;42456;49.956;20.004;2023-10-08T11:16:27;5.50;;;2.30;;
56567;SDS011;42456;49.956;20.004;2023-10-08T11:18:58;5.00;;;2.20;;
56567;SDS011;42456;49.956;20.004;2023-10-08T11:24:00;3.30;;;1.80;;
56567;SDS011;42456;49.956;20.004;2023-10-08T11:26:36;4.00;;;2.30;;
56567;SDS011;42456;49.956;20.004;2023-10-08T11:29:06;2.90;;;2.10;;
56567;SDS011;42456;49.956;20.004;2023-10-08T11:31:41;4.50;;;2.50;;
56567;SDS011;42456;49.956;20.004;2023-10-08T11:34:10;2.40;;;1.70;;
56567;SDS011;42456;49.956;20.004;2023-10-08T11:36:40;2.70;;;1.50;;
56567;SDS011;42456;49.956;20.004;2023-10-08T11:39:20;2.20;;;1.90;;
56567;SDS011;42456;49.956;20.004;2023-10-08T11:44:23;2.20;;;1.50;;
56567;SDS011;42456;49.956;20.004;2023-10-08T11:46:57;2.60;;;1.90;;
56567;SDS011;42456;49.956;20.004;2023-10-08T11:49:31;3.20;;;1.80;;
56567;SDS011;42456;49.956;20.004;2023-10-08T11:52:03;2.00;;;1.40;;
56567;SDS011;42456;49.956;20.004;2023-10-08T11:54:30;2.90;;;1.80;;
56567;SDS011;42456;49.956;20.004;2023-10-08T11:56:59;4.90;;;2.10;;
56567;SDS011;42456;49.956;20.004;2023-10-08T11:59:29;2.80;;;1.80;;
56567;SDS011;42456;49.956;20.004;2023-10-08T12:02:11;6.40;;;1.80;;
56567;SDS011;42456;49.956;20.004;2023-10-08T12:04:43;4.10;;;1.90;;
56567;SDS011;42456;49.956;20.004;2023-10-08T12:07:14;2.50;;;1.90;;
56567;SDS011;42456;49.956;20.004;2023-10-08T12:09:44;2.90;;;2.50;;
56567;SDS011;42456;49.956;20.004;2023-10-08T12:12:15;1.90;;;1.60;;
56567;SDS011;42456;49.956;20.004;2023-10-08T12:14:45;1.70;;;1.30;;
56567;SDS011;42456;49.956;20.004;2023-10-08T12:17:14;2.90;;;1.80;;
56567;SDS011;42456;49.956;20.004;2023-10-08T12:19:43;3.30;;;1.60;;
56567;SDS011;42456;49.956;20.004;2023-10-08T12:22:11;5.00;;;1.90;;
56567;SDS011;42456;49.956;20.004;2023-10-08T12:24:44;2.20;;;1.90;;
56567;SDS011;42456;49.956;20.004;2023-10-08T12:27:11;2.50;;;1.60;;
56567;SDS011;42456;49.956;20.004;2023-10-08T12:29:39;5.40;;;1.80;;
56567;SDS011;42456;49.956;20.004;2023-10-08T12:32:06;2.40;;;1.60;;
56567;SDS011;42456;49.956;20.004;2023-10-08T12:34:44;4.10;;;1.60;;
56567;SDS011;42456;49.956;20.004;2023-10-08T12:37:11;3.00;;;1.80;;
56567;SDS011;42456;49.956;20.004;2023-10-08T12:39:41;3.00;;;1.40;;
56567;SDS011;42456;49.956;20.004;2023-10-08T12:42:27;3.50;;;2.40;;
56567;SDS011;42456;49.956;20.004;2023-10-08T12:44:53;3.90;;;2.20;;
56567;SDS011;42456;49.956;20.004;2023-10-08T12:47:24;2.60;;;1.40;;
56567;SDS011;42456;49.956;20.004;2023-10-08T12:49:56;4.10;;;1.50;;
56567;SDS011;42456;49.956;20.004;2023-10-08T12:52:24;2.80;;;1.70;;
56567;SDS011;42456;49.956;20.004;2023-10-08T12:54:54;2.30;;;1.60;;
56567;SDS011;42456;49.956;20.004;2023-10-08T12:57:22;2.70;;;1.80;;
56567;SDS011;42456;49.956;20.004;2023-10-08T12:59:59;2.00;;;1.70;;
56567;SDS011;42456;49.956;20.004;2023-10-08T13:02:26;2.70;;;1.60;;
56567;SDS011;42456;49.956;20.004;2023-10-08T13:04:55;2.90;;;1.70;;
56567;SDS011;42456;49.956;20.004;2023-10-08T13:07:24;2.70;;;1.50;;
56567;SDS011;42456;49.956;20.004;2023-10-08T13:09:53;3.40;;;1.60;;
56567;SDS011;42456;49.956;20.004;2023-10-08T13:12:20;4.20;;;1.40;;
56567;SDS011;42456;49.956;20.004;2023-10-08T13:14:47;3.20;;;1.70;;
56567;SDS011;42456;49.956;20.004;2023-10-08T13:17:14;2.60;;;1.70;;
56567;SDS011;42456;49.956;20.004;2023-10-08T13:19:41;3.20;;;1.40;;
56567;SDS011;42456;49.956;20.004;2023-10-08T13:22:08;3.90;;;2.00;;
56567;SDS011;42456;49.956;20.004;2023-10-08T13:24:35;3.20;;;1.70;;
56567;SDS011;42456;49.956;20.004;2023-10-08T13:27:02;2.90;;;1.60;;
56567;SDS011;42456;49.956;20.004;2023-10-08T13:29:46;2.80;;;1.50;;
56567;SDS011;42456;49.956;20.004;2023-10-08T13:32:13;3.00;;;1.30;;
56567;SDS011;42456;49.956;20.004;2023-10-08T13:34:44;2.80;;;1.50;;
56567;SDS011;42456;49.956;20.004;2023-10-08T13:37:13;1.50;;;1.20;;
56567;SDS011;42456;49.956;20.004;2023-10-08T13:39:42;4.00;;;1.80;;
56567;SDS011;42456;49.956;20.004;2023-10-08T13:42:09;2.60;;;1.50;;
56567;SDS011;42456;49.956;20.004;2023-10-08T13:44:42;4.60;;;1.40;;
56567;SDS011;42456;49.956;20.004;2023-10-08T13:47:12;3.90;;;1.20;;
56567;SDS011;42456;49.956;20.004;2023-10-08T13:49:41;2.50;;;1.70;;
56567;SDS011;42456;49.956;20.004;2023-10-08T13:52:09;1.60;;;1.30;;
56567;SDS011;42456;49.956;20.004;2023-10-08T13:54:37;3.00;;;1.70;;
56567;SDS011;42456;49.956;20.004;2023-10-08T13:57:08;2.40;;;1.40;;
56567;SDS011;42456;49.956;20.004;2023-10-08T13:59:37;2.20;;;1.20;;
56567;SDS011;42456;49.956;20.004;2023-10-08T14:02:04;1.70;;;0.90;;
56567;SDS011;42456;49.956;20.004;2023-10-08T14:04:41;3.10;;;1.70;;
56567;SDS011;42456;49.956;20.004;2023-10-08T14:07:14;3.50;;;1.50;;
56567;SDS011;42456;49.956;20.004;2023-10-08T14:09:43;4.40;;;1.80;;
56567;SDS011;42456;49.956;20.004;2023-10-08T14:12:12;2.70;;;1.50;;
56567;SDS011;42456;49.956;20.004;2023-10-08T14:14:44;3.30;;;2.00;;
56567;SDS011;42456;49.956;20.004;2023-10-08T14:17:11;3.60;;;1.60;;
56567;SDS011;42456;49.956;20.004;2023-10-08T14:20:04;5.20;;;1.80;;
56567;SDS011;42456;49.956;20.004;2023-10-08T14:22:39;3.00;;;1.40;;
56567;SDS011;42456;49.956;20.004;2023-10-08T14:25:08;2.50;;;1.30;;
56567;SDS011;42456;49.956;20.004;2023-10-08T14:27:38;4.70;;;2.20;;
56567;SDS011;42456;49.956;20.004;2023-10-08T14:30:07;4.40;;;2.20;;
56567;SDS011;42456;49.956;20.004;2023-10-08T14:32:55;2.20;;;1.40;;
56567;SDS011;42456;49.956;20.004;2023-10-08T14:35:24;2.90;;;1.60;;
56567;SDS011;42456;49.956;20.004;2023-10-08T14:38:05;3.40;;;1.50;;
56567;SDS011;42456;49.956;20.004;2023-10-08T14:40:46;4.30;;;1.90;;
56567;SDS011;42456;49.956;20.004;2023-10-08T14:43:27;4.50;;;1.60;;
56567;SDS011;42456;49.956;20.004;2023-10-08T14:45:57;4.10;;;2.10;;
56567;SDS011;42456;49.956;20.004;2023-10-08T14:48:26;3.70;;;2.00;;
56567;SDS011;42456;49.956;20.004;2023-10-08T14:50:56;3.90;;;2.00;;
56567;SDS011;42456;49.956;20.004;2023-10-08T14:53:26;3.00;;;1.60;;
56567;SDS011;42456;49.956;20.004;2023-10-08T14:55:54;3.10;;;2.10;;
56567;SDS011;42456;49.956;20.004;2023-10-08T14:58:22;3.20;;;1.90;;
56567;SDS011;42456;49.956;20.004;2023-10-08T15:00:52;2.90;;;1.70;;
56567;SDS011;42456;49.956;20.004;2023-10-08T15:03:20;4.60;;;1.50;;
56567;SDS011;42456;49.956;20.004;2023-10-08T15:05:48;2.80;;;1.50;;
56567;SDS011;42456;49.956;20.004;2023-10-08T15:08:17;2.90;;;1.70;;
56567;SDS011;42456;49.956;20.004;2023-10-08T15:10:45;6.00;;;2.50;;
56567;SDS011;42456;49.956;20.004;2023-10-08T15:13:13;3.90;;;2.10;;
56567;SDS011;42456;49.956;20.004;2023-10-08T15:15:40;5.10;;;2.10;;
56567;SDS011;42456;49.956;20.004;2023-10-08T15:18:08;2.60;;;1.70;;
56567;SDS011;42456;49.956;20.004;2023-10-08T15:20:39;3.80;;;1.50;;
56567;SDS011;42456;49.956;20.004;2023-10-08T15:23:08;2.70;;;1.40;;
56567;SDS011;42456;49.956;20.004;2023-10-08T15:25:39;4.30;;;2.30;;
56567;SDS011;42456;49.956;20.004;2023-10-08T15:28:06;3.30;;;2.40;;
56567;SDS011;42456;49.956;20.004;2023-10-08T15:30:34;3.30;;;1.80;;
56567;SDS011;42456;49.956;20.004;2023-10-08T15:33:02;4.70;;;1.90;;